• Join FlightAware (Why Join?)
  • Login
  • US Flag 
01:13PM EST


 

Airport Tracker/Info


-or-


 

Live Flight TrackerFlight Track Log ✈ UAL4108 ✈ 17-Apr-2013 ✈ KLIT - KIAH

Flight Track Log - Related Links

Times and Time Zones

All times are in EDT time to prevent confusion due to time zone crossing. See the UAL4108 flight status page for this flight to view local times or setup timezone preferences in your user account.

Time Position Orientation Groundspeed Altitude Reporting Facility
EDT Latitude Longitude Course Direction KTS MPH feet Rate Location/Type
07:07AM 34.7156 -92.2494 193° South 157 181 900  Level Memphis Center
07:08AM 34.6656 -92.2533 184° South 161 185 3,600 1,980 Climbing Memphis Center
07:09AM 34.6175 -92.2525 179° South 187 215 5,200 1,380 Climbing Memphis Center
07:10AM 34.4911 -92.3908 190° South  Level Estimated
07:10AM 34.5486 -92.2533 181° South 255 293 6,500  Level Memphis Center
07:11AM 34.4028 -92.3616 165° South  Level FlightAware Approximate
07:11AM 34.4861 -92.2544 181° South 254 292 8,200  Level Memphis Center
07:12AM 34.3239 -92.4180 193° South  Level Estimated
07:12AM 34.4150 -92.2556 181° South 254 292 9,800  Level Memphis Center
07:13AM 34.3378 -92.2639 185° South 265 305 10,700 720 Climbing Memphis Center
07:14AM 34.2478 -92.2819 189° South 304 350 11,300 660 Climbing Memphis Center
07:15AM 34.1536 -92.2975 188° South 326 375 12,100 900 Climbing Memphis Center
07:16AM 34.0697 -92.3131 189° South 344 396 13,100 1,020 Climbing Memphis Center
07:17AM 33.9756 -92.3286 188° South 351 404 14,200 1,020 Climbing Memphis Center
07:18AM 33.8711 -92.3461 188° South 351 404 15,200 960 Climbing Memphis Center
07:19AM 33.7772 -92.3586 186° South 357 411 16,200 1,020 Climbing Fort Worth Center
07:20AM 33.6819 -92.3739 188° South 350 403 17,300 960 Climbing Fort Worth Center
07:21AM 33.5844 -92.3894 188° South 350 403 18,200 960 Climbing Fort Worth Center
07:22AM 33.4892 -92.4050 188° South 350 403 19,300 1,020 Climbing Fort Worth Center
07:23AM 33.3917 -92.4203 187° South 350 403 20,300 960 Climbing Fort Worth Center
07:24AM 33.2903 -92.4386 189° South 350 403 21,300 1,020 Climbing Fort Worth Center
07:25AM 33.1908 -92.4567 189° South 373 429 22,400 1,020 Climbing Fort Worth Center
07:26AM 33.0872 -92.4772 189° South 367 422 23,400 1,020 Climbing Fort Worth Center
07:27AM 32.9856 -92.4953 188° South 372 428 24,500 960 Climbing Fort Worth Center
07:29AM 32.7689 -92.5339 189° South 367 422 26,700 1,020 Climbing Houston Center
07:30AM 32.6486 -92.5569 189° South 364 419 27,900 600 Climbing Houston Center
07:31AM 32.5481 -92.5733 188° South 365 420 28,000  Climbing Houston Center
07:32AM 32.4422 -92.5933 189° South 380 437 28,000  Level Houston Center
07:33AM 32.3333 -92.6111 188° South 393 452 28,000  Level Houston Center
07:34AM 32.2211 -92.6325 189° South 404 465 28,000 240 Level Houston Center
07:35AM 32.1081 -92.6522 188° South 412 474 28,500 720 Climbing Houston Center
07:36AM 32.0008 -92.6719 189° South 395 455 29,500 960 Climbing Houston Center
07:37AM 31.9139 -92.7350 212° Southwest 373 429 30,500 900 Climbing Houston Center
07:38AM 31.8378 -92.8097 220° Southwest 361 415 31,400 720 Climbing Houston Center
07:39AM 31.7614 -92.8833 219° Southwest 358 412 32,000 240 Climbing Houston Center
07:40AM 31.6836 -92.9586 219° Southwest 364 419 32,000  Level Houston Center
07:41AM 31.5850 -93.0539 219° Southwest 384 442 32,000  Level Houston Center
07:42AM 31.4997 -93.1356 219° Southwest 394 453 32,000  Level Houston Center
07:43AM 31.4139 -93.2172 219° Southwest 400 460 32,000  Level Houston Center
07:44AM 31.3264 -93.2994 219° Southwest 403 464 32,000  Level Houston Center
07:46AM 31.2189 -93.3378 197° South 415 478 32,000 -120 Level Houston Center
07:47AM 31.1097 -93.3606 190° South 404 465 31,800 -360 Descending Houston Center
07:48AM 30.9978 -93.3836 190° South 406 467 31,300 -600 Descending Houston Center
07:49AM 30.8864 -93.4083 191° South 408 470 30,700 -660 Descending Houston Center
07:50AM 30.7633 -93.4714 204° Southwest 415 478 30,000 -1,500 Descending Houston Center
07:51AM 30.6936 -93.5833 234° Southwest 425 489 27,700 -2,220 Descending Houston Center
07:52AM 30.6194 -93.6978 233° Southwest 426 490 25,500 -2,220 Descending Houston Center
07:53AM 30.5506 -93.8064 234° Southwest 415 478 23,200 -2,160 Descending Houston Center
07:54AM 30.4869 -93.9075 234° Southwest 390 449 21,100 -2,220 Descending Houston Center
07:55AM 30.4261 -94.0047 234° Southwest 373 429 18,800 -2,100 Descending Houston Center
07:56AM 30.3656 -94.0986 233° Southwest 363 418 16,900 -1,980 Descending Houston Center
07:56AM 30.3436 -94.1347 235° Southwest 354 407 16,100 -1,800 Descending Houston Center
07:57AM 30.3081 -94.1889 233° Southwest 350 403 15,100 -1,920 Descending Houston Center
07:57AM 30.2781 -94.2353 233° Southwest 345 397 14,000 -1,980 Descending Houston Center
07:58AM 30.2503 -94.2781 233° Southwest 345 397 13,100 -1,680 Descending Houston Center
07:58AM 30.2236 -94.3225 235° Southwest 340 391 12,300 -1,140 Descending Houston Center
07:59AM 30.1972 -94.3669 236° Southwest 337 388 12,000 -540 Descending Houston Center
08:00AM 30.1786 -94.4683 258° West 327 376 11,500 -720 Descending Houston Center
08:00AM 30.1708 -94.5131 259° West 333 383 11,100 -1,020 Descending Houston Center
08:01AM 30.1619 -94.5744 261° West 330 380 10,500 -1,020 Descending Houston Center
08:01AM 30.1519 -94.6197 256° West 319 367 10,100 -1,020 Descending Houston Center
08:02AM 30.1467 -94.6714 263° West 317 365 9,500 -1,200 Descending Houston Center
08:02AM 30.1378 -94.7133 256° West 288 331 8,900 -1,440 Descending Houston Center
08:03AM 30.1231 -94.8022 259° West 279 321 7,600 -1,320 Descending Houston Center
08:04AM 30.1156 -94.8444 258° West 278 320 6,700 -960 Descending Houston Center
08:05AM 30.1047 -94.9467 263° West 271 312 6,000 -360 Descending Houston Center
08:06AM 30.1064 -95.0286 271° West 262 302 6,000  Level Houston Center
08:07AM 30.1056 -95.1147 269° West 266 306 6,000  Level Houston Center
08:07AM 30.1061 -95.1569 271° West 275 316 6,000  Level Houston Center
08:08AM 30.1072 -95.2044 272° West 278 320 6,000  Level Houston Center
08:08AM 30.1061 -95.2464 268° West 285 328 6,000  Level Houston Center
08:09AM 30.1072 -95.2939 272° West 280 322 6,000  Level Houston Center
08:09AM 30.1058 -95.3358 268° West 268 308 6,000  Level Houston Center
08:10AM 30.1072 -95.3797 272° West 272 313 6,000  Level Houston Center
08:10AM 30.1058 -95.4275 268° West 272 313 6,000 -420 Level Houston Center
08:11AM 30.1064 -95.4658 271° West 270 311 5,600 -1,140 Descending Houston Center
08:11AM 30.1053 -95.5144 268° West 273 314 4,900 -1,500 Descending Houston Center
08:12AM 30.1075 -95.5706 273° West 272 313 4,100 -1,020 Descending Houston Center
08:12AM 30.1061 -95.5917 266° West 266 306 4,000 -120 Descending Houston Center
08:13AM 30.1061 -95.6514 270° West 258 297 4,000  Level Houston Center
08:13AM 30.0919 -95.6683 226° Southwest 236 272 4,000  Level Houston Center
08:14AM 30.0472 -95.6736 186° South 236 272 4,000  Level Houston Center
08:15AM 29.9928 -95.6536 162° South 250 288 4,000 -180 Level Houston Center
08:16AM 29.9936 -95.5764 89° East 243 280 3,700 -780 Descending Houston Center
08:17AM 29.9931 -95.5000 90° East 240 276 2,500 -1,200 Descending Houston Center